Whitehall, MI (49461)

7:34 AM EDT on June 02, 2015 (GMT -0400)
98.9FM Real Gold Radio station - 1.6 mi SE of DT Whitehall, MI | | Change Station
CLOSE
Current Station
Personal Weather Station
Location: Whitehall, MI
Elevation: 712 ft
Nearby Weather Stations

Elev 712 ft 43.39 °N, 86.33 °W | Updated 13 minutes ago

Clear
Clear
41.4 °F
Feels Like 41 °F
N
0.0
Wind Variable Wind from ENE
Gusts 2.0 mph

Today
High -- | Low -- °F
--% Chance of Precip.
Yesterday
High -- | Low -- °F
Precip. -- in
6:07 AM 9:19 PM
Full, 100% visible
Pressure 30.23 in
Visibility 10.0 miles
Clouds Clear
Windchill 41 °F
Dew Point 40 °F
Humidity 93%
Rainfall 0.00 in
Snow Depth Not available.
UV 0 out of 12
Pollen 8.10 out of 12
Air Quality Not available.
Flu Activity Sporadic
METAR KMKG 021055Z 11003KT 10SM CLR 06/03 A3022 RMK AO2 SLP236 T00610028

More Conditions Fewer Conditions

Pressure 30.23 in
Visibility 10.0 miles
Clouds Clear
Windchill 41 °F
Dew Point 40 °F
Humidity 93%
Rainfall 0.00 in
Snow Depth Not available.
UV 0 out of 12
Pollen 8.10 out of 12
Air Quality Not available.
Flu Activity Sporadic
METAR KMKG 021055Z 11003KT 10SM CLR 06/03 A3022 RMK AO2 SLP236 T00610028

More Conditions Fewer Conditions

10-Day Weather Forecast

Almanac

Astronomy

Jun. 02, 2015 Rise Set
Actual Time
Civil Twilight
Nautical Twilight
Astronomical Twilight
Moon
Length of Visible Light
Length of Day
Tomorrow will be .
, % of the Moon is Illuminated

Today's Extremes

State Highs State Lows

Community

WunderPhotos

Upload Photos

1,825,913 photos uploaded!

WunderBlogs® & News

Nearby

Air Quality

  Air Quality AQ Index Pollutant
Not available.

Snow Depth

Station Depth Elevation

Earthquake Activity

City Distance Mag. Time & Date
Minimum magnitude displayed is 2.5.

Coastal Water Temperatures

Place Temperature

Stations

Nearby Weather Stations

Station Location Temp. Windchill Dew Point Humidity Wind Precip. Elev Updated Type